Time;durP1;ratioP1;P1;durP2;ratioP2;P2;SDS_P1;SDS_P2;PMS_P1;PMS_P2;Temp;Humidity;BMP_temperature;BMP_pressure;BME280_temperature;BME280_humidity;BME280_pressure;Samples;Min_cycle;Max_cycle;Signal;HPM_P1;HPM_P2
2022/01/06 00:01:22;;;;;;;22.00;10.68;;;;;;;-0.66;77.33;97786.84;5093926;28;20105;-80
2022/01/06 00:03:52;;;;;;;24.83;10.68;;;;;;;-0.65;77.49;97795.38;5093889;28;20056;-81
2022/01/06 00:06:20;;;;;;;22.63;10.23;;;;;;;-0.64;77.58;97785.16;5093653;28;20490;-81
2022/01/06 00:08:47;;;;;;;24.05;10.43;;;;;;;-0.59;77.54;97797.19;5093741;28;20105;-80
2022/01/06 00:11:14;;;;;;;21.75;10.23;;;;;;;-0.74;77.81;97755.09;5093336;28;20509;-81
2022/01/06 00:14:03;;;;;;;24.15;11.10;;;;;;;-0.48;77.91;97782.81;5093564;28;20060;-81
2022/01/06 00:24:15;;;;;;;24.25;10.38;;;;;;;-0.33;78.17;97775.31;5094303;28;20055;-81
2022/01/06 00:26:42;;;;;;;20.08;8.45;;;;;;;-0.30;77.96;97766.78;5093969;28;20079;-82
2022/01/06 00:29:09;;;;;;;22.52;9.15;;;;;;;-0.30;77.69;97759.97;5075274;28;20097;-82
2022/01/06 00:31:37;;;;;;;20.48;9.02;;;;;;;-0.13;77.35;97777.28;5093337;28;20052;-82
2022/01/06 00:34:08;;;;;;;18.63;8.35;;;;;;;-0.17;77.96;97773.81;5073245;28;20910;-81
2022/01/06 00:36:36;;;;;;;20.05;9.25;;;;;;;-0.10;77.64;97785.03;5081841;28;20051;-80
2022/01/06 00:39:04;;;;;;;21.92;9.27;;;;;;;-0.08;78.15;97781.63;5077442;28;20105;-80
2022/01/06 00:41:34;;;;;;;22.08;10.13;;;;;;;-0.03;77.74;97787.66;5079612;28;20060;-80
2022/01/06 00:44:01;;;;;;;17.33;8.20;;;;;;;0.02;77.58;97790.28;5074180;28;20159;-81
2022/01/06 00:46:29;;;;;;;20.88;8.85;;;;;;;0.05;77.92;97792.91;5092923;28;20055;-82
2022/01/06 00:48:55;;;;;;;19.75;9.00;;;;;;;0.10;77.60;97786.13;5093017;28;20052;-80
2022/01/06 00:51:23;;;;;;;16.25;8.32;;;;;;;0.15;77.74;97778.47;5093320;28;20044;-81
2022/01/06 00:53:50;;;;;;;20.70;9.27;;;;;;;0.16;77.91;97775.91;5093127;28;20047;-81
2022/01/06 00:56:16;;;;;;;18.02;8.70;;;;;;;0.29;77.59;97794.91;5093230;28;20079;-81
2022/01/06 00:58:43;;;;;;;17.67;8.70;;;;;;;0.26;77.74;97773.44;5093381;28;20056;-82
2022/01/06 01:01:10;;;;;;;17.17;8.57;;;;;;;0.38;77.94;97796.69;5093201;28;20051;-82
2022/01/06 01:03:37;;;;;;;17.83;8.80;;;;;;;0.39;78.05;97789.03;5092859;28;20063;-81
2022/01/06 01:06:04;;;;;;;19.13;9.20;;;;;;;0.46;78.03;97795.09;5074438;28;20080;-80
2022/01/06 01:08:34;;;;;;;19.85;8.68;;;;;;;0.42;78.31;97787.34;5075342;28;20521;-80
2022/01/06 01:11:01;;;;;;;14.98;7.75;;;;;;;0.45;78.28;97790.78;5092856;28;20044;-80
2022/01/06 01:13:31;;;;;;;16.17;7.95;;;;;;;0.46;77.77;97789.09;5093080;28;20052;-80
2022/01/06 01:16:07;;;;;;;;;;;;;;;0.42;78.05;97787.34;5093408;28;20056;-80
2022/01/06 01:18:34;;;;;;;15.20;8.05;;;;;;;0.51;77.72;97790.00;5093401;28;19993;-80
2022/01/06 01:21:02;;;;;;;15.13;7.50;;;;;;;0.54;77.82;97793.47;5093119;28;20049;-80
2022/01/06 01:23:28;;;;;;;14.57;7.15;;;;;;;0.57;77.63;97790.06;5093409;28;20505;-80
2022/01/06 01:25:55;;;;;;;15.00;7.72;;;;;;;0.58;77.90;97795.22;5092270;28;20075;-80
2022/01/06 01:28:31;;;;;;;14.70;7.18;;;;;;;0.60;78.25;97801.22;5074435;28;20078;-81
2022/01/06 01:31:22;;;;;;;14.88;7.50;;;;;;;0.54;78.41;97775.47;5094039;28;20087;-81
2022/01/06 01:33:52;;;;;;;11.95;6.97;;;;;;;0.61;78.15;97790.09;5096721;28;20070;-82
2022/01/06 01:36:19;;;;;;;14.07;6.77;;;;;;;0.68;78.35;97778.16;5096791;28;20109;-82
2022/01/06 01:38:47;;;;;;;14.30;7.10;;;;;;;0.56;78.66;97753.22;5096412;28;20515;-82
2022/01/06 01:41:15;;;;;;;14.40;7.30;;;;;;;0.80;78.43;97790.28;5077778;28;20493;-81
2022/01/06 01:43:46;;;;;;;12.35;6.47;;;;;;;0.75;78.36;97779.97;5096527;28;20048;-81
2022/01/06 01:46:16;;;;;;;16.27;7.20;;;;;;;0.72;78.95;97761.91;5078325;28;20401;-81
2022/01/06 01:49:10;;;;;;;12.32;6.40;;;;;;;0.83;79.03;97787.72;5096539;28;20055;-81
2022/01/06 01:51:32;;;;;;;12.65;6.63;;;;;;;0.81;78.76;97792.84;5095853;28;20052;-80
2022/01/06 01:54:00;;;;;;;10.30;6.25;;;;;;;0.84;79.10;97791.16;5095919;28;20485;-81
2022/01/06 01:56:27;;;;;;;13.52;6.20;;;;;;;0.82;78.53;97786.00;5096473;28;20048;-81
2022/01/06 01:58:54;;;;;;;12.20;6.80;;;;;;;0.86;78.97;97790.34;5095915;28;20051;-80
2022/01/06 02:01:21;;;;;;;12.35;6.50;;;;;;;0.83;79.16;97782.59;5096219;28;20094;-82
2022/01/06 02:03:48;;;;;;;9.95;5.63;;;;;;;0.85;79.22;97801.44;5095904;28;20056;-81
2022/01/06 02:06:15;;;;;;;11.15;5.97;;;;;;;0.87;79.25;97793.75;5078095;28;20105;-81
2022/01/06 02:08:43;;;;;;;12.85;6.15;;;;;;;0.90;79.58;97797.19;5077707;28;20425;-81
2022/01/06 02:11:10;;;;;;;12.23;5.72;;;;;;;0.91;79.10;97796.38;5095684;28;20052;-81
2022/01/06 02:13:50;;;;;;;10.77;5.80;;;;;;;0.88;79.37;97785.19;5095569;28;20452;-80
2022/01/06 02:16:24;;;;;;;10.23;5.95;;;;;;;0.91;79.52;97790.38;5095849;28;20064;-81
2022/01/06 02:18:52;;;;;;;10.02;5.57;;;;;;;1.00;79.34;97805.88;5096454;28;20138;-82
2022/01/06 02:21:20;;;;;;;10.20;5.50;;;;;;;0.95;79.16;97790.41;5095851;28;20139;-81
2022/01/06 02:23:47;;;;;;;11.73;6.25;;;;;;;0.99;79.24;97807.59;5095679;28;20064;-81
2022/01/06 02:26:14;;;;;;;9.82;5.78;;;;;;;0.92;79.43;97792.94;5095687;28;20509;-81
2022/01/06 02:28:42;;;;;;;9.25;5.65;;;;;;;0.98;79.40;97802.41;5095479;28;20052;-81
2022/01/06 02:31:09;;;;;;;8.90;5.28;;;;;;;1.05;79.28;97805.91;5095454;28;20085;-81
2022/01/06 02:33:37;;;;;;;10.23;5.45;;;;;;;1.02;79.50;97794.75;5095432;28;20048;-80
2022/01/06 02:36:04;;;;;;;11.48;5.72;;;;;;;1.03;79.34;97800.72;5096071;28;20091;-81
2022/01/06 02:38:31;;;;;;;10.48;5.43;;;;;;;0.91;79.44;97767.25;5095468;28;20497;-80
2022/01/06 02:40:58;;;;;;;8.50;5.32;;;;;;;1.13;79.25;97799.97;5076875;28;20059;-80
2022/01/06 02:43:26;;;;;;;8.40;5.15;;;;;;;1.12;79.05;97808.56;5094313;28;20139;-81
2022/01/06 02:45:53;;;;;;;9.55;5.30;;;;;;;1.01;79.34;97780.19;5094948;28;20417;-82
2022/01/06 02:48:20;;;;;;;11.98;5.47;;;;;;;1.17;79.11;97809.44;5095478;28;20048;-81
2022/01/06 02:50:49;;;;;;;7.90;5.28;;;;;;;1.26;78.73;97813.78;5095301;28;20052;-81
2022/01/06 02:53:18;;;;;;;12.90;6.53;;;;;;;1.27;78.90;97819.78;5095123;28;20079;-80
2022/01/06 02:55:53;;;;;;;10.95;6.13;;;;;;;1.30;78.68;97809.53;5095142;28;20048;-79
2022/01/06 02:58:40;;;;;;;11.55;6.20;;;;;;;1.27;78.83;97819.78;5095091;28;20048;-79
2022/01/06 03:01:07;;;;;;;11.43;5.72;;;;;;;1.28;78.67;97814.66;5094917;28;20054;-79
2022/01/06 03:03:34;;;;;;;12.45;6.40;;;;;;;1.21;78.58;97792.31;5094919;28;20413;-79
2022/01/06 03:06:01;;;;;;;10.90;6.07;;;;;;;1.32;78.44;97821.56;5076871;28;20056;-79
2022/01/06 03:08:28;;;;;;;10.73;6.10;;;;;;;1.33;78.47;97820.69;5094679;28;20514;-79
2022/01/06 03:10:56;;;;;;;12.20;6.32;;;;;;;1.23;78.83;97796.63;5076544;28;20097;-78
2022/01/06 03:13:23;;;;;;;11.65;6.38;;;;;;;1.29;78.52;97805.22;5094710;28;20139;-79
2022/01/06 03:15:51;;;;;;;13.85;6.35;;;;;;;1.37;78.56;97817.28;5094674;28;20047;-79
2022/01/06 03:18:18;;;;;;;13.70;6.40;;;;;;;1.42;78.47;97835.38;5095189;28;20056;-79
2022/01/06 03:20:44;;;;;;;13.27;6.72;;;;;;;1.45;78.65;97825.09;5094661;28;20044;-79
2022/01/06 03:23:11;;;;;;;12.10;6.50;;;;;;;1.43;78.71;97819.06;5059635;28;20044;-79
2022/01/06 03:25:39;;;;;;;11.88;6.60;;;;;;;1.45;78.61;97829.38;5094249;28;20083;-79
2022/01/06 03:28:05;;;;;;;10.27;5.97;;;;;;;1.47;78.66;97817.38;5094413;28;20079;-80
2022/01/06 03:30:32;;;;;;;10.98;5.97;;;;;;;1.47;78.27;97810.50;5094171;28;20064;-79
2022/01/06 03:32:59;;;;;;;10.18;5.75;;;;;;;1.51;78.35;97819.13;5075812;28;20051;-79
2022/01/06 03:35:26;;;;;;;11.45;6.13;;;;;;;1.49;78.24;97823.41;5094605;28;20542;-79
2022/01/06 03:37:54;;;;;;;8.63;5.72;;;;;;;1.47;78.25;97813.09;5094157;28;20135;-79
2022/01/06 03:40:21;;;;;;;9.27;5.47;;;;;;;1.51;78.44;97822.56;5094057;28;20055;-79
2022/01/06 03:42:48;;;;;;;11.48;6.22;;;;;;;1.40;78.77;97798.47;5094289;28;20189;-79
2022/01/06 03:45:18;;;;;;;9.00;5.65;;;;;;;1.58;78.38;97818.31;5075795;28;20048;-80
2022/01/06 03:47:45;;;;;;;9.17;5.73;;;;;;;1.52;78.39;97802.81;5076068;28;20467;-79
2022/01/06 03:50:14;;;;;;;11.30;5.72;;;;;;;1.55;78.23;97811.44;5093837;28;20064;-79
2022/01/06 03:52:42;;;;;;;8.07;5.15;;;;;;;1.55;78.07;97803.72;5093972;28;20055;-79
2022/01/06 03:55:13;;;;;;;11.43;5.93;;;;;;;1.63;77.87;97814.03;5094178;28;20056;-79
2022/01/06 03:57:40;;;;;;;9.30;5.43;;;;;;;1.52;78.09;97795.09;5094341;28;20098;-79
2022/01/06 04:00:10;;;;;;;9.55;5.97;;;;;;;1.71;78.05;97809.81;5093682;28;20113;-80
2022/01/06 04:02:39;;;;;;;8.82;5.60;;;;;;;1.69;77.62;97806.34;5093889;28;20148;-80
2022/01/06 04:05:07;;;;;;;10.63;5.72;;;;;;;1.68;77.52;97808.91;5093598;28;20052;-80
2022/01/06 04:07:35;;;;;;;11.45;6.18;;;;;;;1.66;77.70;97815.75;5093774;28;20048;-80
2022/01/06 04:10:03;;;;;;;10.38;5.72;;;;;;;1.54;78.14;97796.81;5093359;28;20079;-79
2022/01/06 04:12:33;;;;;;;11.13;6.05;;;;;;;1.69;78.08;97821.81;5094045;28;20052;-81
2022/01/06 04:15:01;;;;;;;12.65;6.50;;;;;;;1.71;77.89;97825.25;5093743;28;20059;-79
2022/01/06 04:17:28;;;;;;;11.23;6.60;;;;;;;1.74;77.84;97824.41;5075740;28;20071;-80
2022/01/06 04:19:55;;;;;;;10.77;6.40;;;;;;;1.73;77.74;97825.25;5093657;28;20079;-80
2022/01/06 04:22:22;;;;;;;11.73;6.32;;;;;;;1.57;77.64;97794.28;5093337;28;20087;-80
2022/01/06 04:24:49;;;;;;;11.88;6.60;;;;;;;1.72;77.60;97811.53;5077614;28;20056;-81
2022/01/06 04:27:16;;;;;;;10.50;6.25;;;;;;;1.84;77.15;97821.03;5095824;28;20063;-80
2022/01/06 04:29:43;;;;;;;11.82;6.35;;;;;;;1.90;77.38;97830.50;5095623;28;20095;-79
2022/01/06 04:32:10;;;;;;;13.55;6.68;;;;;;;1.76;77.33;97802.94;5093826;28;20044;-80
2022/01/06 04:34:36;;;;;;;11.48;6.72;;;;;;;1.75;77.62;97802.97;5093315;28;20059;-80
2022/01/06 04:37:04;;;;;;;9.50;5.97;;;;;;;1.79;78.22;97817.59;5075550;28;20093;-80
2022/01/06 04:39:31;;;;;;;10.60;6.07;;;;;;;1.81;78.13;97821.03;5075092;28;20079;-79
2022/01/06 04:41:58;;;;;;;12.15;5.90;;;;;;;1.88;78.18;97829.66;5093038;28;20048;-80
2022/01/06 04:44:25;;;;;;;11.10;6.03;;;;;;;1.87;77.75;97830.47;5092874;28;20056;-79
2022/01/06 04:46:52;;;;;;;9.85;5.35;;;;;;;1.75;78.17;97824.41;5093373;28;20139;-80
2022/01/06 04:49:19;;;;;;;9.38;5.43;;;;;;;1.62;78.51;97817.47;5093732;28;20109;-80
2022/01/06 04:51:46;;;;;;;9.48;5.60;;;;;;;1.57;78.31;97811.41;5074851;28;20425;-80
2022/01/06 04:54:13;;;;;;;10.10;5.97;;;;;;;1.63;78.71;97830.38;5093015;28;20509;-81
2022/01/06 04:56:40;;;;;;;8.70;5.43;;;;;;;1.59;78.86;97815.75;5092865;28;20051;-80
2022/01/06 04:59:08;;;;;;;11.60;6.53;;;;;;;1.72;78.69;97831.25;5075072;28;20059;-81
2022/01/06 05:01:36;;;;;;;9.07;5.68;;;;;;;1.71;78.58;97838.13;5075274;28;20083;-81
2022/01/06 05:04:04;;;;;;;10.57;5.50;;;;;;;1.63;78.41;97822.66;5092709;28;20192;-81
2022/01/06 05:06:32;;;;;;;11.30;6.07;;;;;;;1.71;78.17;97838.13;5092566;28;20584;-82
2022/01/06 05:08:58;;;;;;;10.10;5.95;;;;;;;1.72;78.24;97857.00;5092827;28;20110;-81
2022/01/06 05:11:25;;;;;;;9.52;4.88;;;;;;;1.58;77.72;97870.63;5092809;28;20052;-80
2022/01/06 05:13:52;;;;;;;9.65;4.13;;;;;;;1.34;77.84;97855.88;5092999;28;20157;-80
2022/01/06 05:16:19;;;;;;;8.35;3.53;;;;;;;1.18;77.97;97882.31;5074863;28;20086;-79
2022/01/06 05:18:46;;;;;;;6.60;3.13;;;;;;;1.05;78.40;97877.91;5092895;28;20064;-80
2022/01/06 05:21:13;;;;;;;5.10;2.83;;;;;;;1.03;78.21;97870.16;5092681;28;20079;-80
2022/01/06 05:23:41;;;;;;;6.88;3.20;;;;;;;0.97;78.27;97873.56;5092561;28;20060;-81
2022/01/06 05:26:08;;;;;;;6.00;3.10;;;;;;;0.89;78.22;97853.75;5092733;28;20063;-80
2022/01/06 05:28:36;;;;;;;5.40;3.10;;;;;;;0.84;78.58;97855.41;5092855;28;20064;-80
2022/01/06 05:31:03;;;;;;;4.25;3.10;;;;;;;0.84;78.14;97855.41;5092611;28;20125;-80
2022/01/06 05:33:29;;;;;;;8.32;4.55;;;;;;;0.90;78.41;97864.03;5092382;28;20056;-78
2022/01/06 05:35:57;;;;;;;14.02;6.85;;;;;;;0.94;78.03;97852.94;5074884;28;20048;-79
2022/01/06 05:38:24;;;;;;;10.65;5.70;;;;;;;1.01;77.54;97857.31;5092395;28;20101;-80
2022/01/06 05:40:50;;;;;;;8.82;4.53;;;;;;;0.96;77.59;97848.69;5092868;28;20052;-80
2022/01/06 05:43:20;;;;;;;7.82;3.95;;;;;;;1.10;77.58;97851.41;5092296;28;20091;-80
2022/01/06 05:45:51;;;;;;;6.63;3.22;;;;;;;1.17;77.21;97854.88;5074249;28;20498;-79
2022/01/06 05:48:19;;;;;;;4.80;2.75;;;;;;;1.18;76.82;97859.16;5072163;28;20063;-79
2022/01/06 05:50:49;;;;;;;3.95;2.00;;;;;;;1.21;77.00;97870.34;5053928;28;20456;-78
2022/01/06 05:53:18;;;;;;;4.03;2.30;;;;;;;1.18;76.97;97857.47;5083621;28;20048;-81
2022/01/06 05:55:45;;;;;;;5.65;2.70;;;;;;;1.23;76.84;97873.78;5072196;28;20059;-80
2022/01/06 05:58:12;;;;;;;4.47;3.00;;;;;;;1.22;76.46;97877.19;5054362;28;20044;-80
2022/01/06 06:00:39;;;;;;;6.38;2.72;;;;;;;1.21;76.89;97866.91;5072322;28;20098;-83
2022/01/06 06:03:06;;;;;;;8.30;2.88;;;;;;;1.13;76.52;97855.69;5072073;28;20053;-82
2022/01/06 06:05:33;;;;;;;4.32;2.45;;;;;;;1.27;76.38;97861.81;5072378;28;20056;-83
2022/01/06 06:08:00;;;;;;;4.95;2.80;;;;;;;1.10;76.62;97840.22;5072372;28;20076;-81
2022/01/06 06:10:27;;;;;;;3.47;2.70;;;;;;;1.30;76.11;97864.41;5072094;28;20434;-82
2022/01/06 06:12:55;;;;;;;6.60;2.90;;;;;;;1.30;76.13;97861.00;5072658;28;20572;-83
2022/01/06 06:15:22;;;;;;;5.93;3.17;;;;;;;1.32;76.30;97867.00;5037835;28;20106;-82
2022/01/06 06:17:49;;;;;;;3.80;2.90;;;;;;;1.35;76.46;97852.44;5073249;28;20064;-82
2022/01/06 06:20:16;;;;;;;6.72;3.25;;;;;;;1.41;76.14;97843.91;5075340;28;20105;-81
2022/01/06 06:22:44;;;;;;;4.13;2.65;;;;;;;1.47;75.85;97863.69;5058568;28;20083;-80
2022/01/06 06:25:11;;;;;;;4.22;2.40;;;;;;;1.47;75.57;97848.25;5076120;28;20524;-81
2022/01/06 06:27:38;;;;;;;5.45;2.53;;;;;;;1.43;75.33;97857.66;5076841;28;20056;-84
2022/01/06 06:30:05;;;;;;;3.97;2.53;;;;;;;1.49;75.37;97865.44;5058304;28;20144;-84
2022/01/06 06:32:33;;;;;;;3.95;2.60;;;;;;;1.55;75.01;97864.59;5075794;28;20059;-80
2022/01/06 06:35:02;;;;;;;5.80;2.42;;;;;;;1.56;75.86;97854.31;5075934;28;20052;-82
2022/01/06 06:37:29;;;;;;;3.65;2.70;;;;;;;1.59;74.92;97858.63;5079345;28;20139;-82
2022/01/06 06:39:57;;;;;;;7.05;2.72;;;;;;;1.51;74.93;97835.41;5064073;28;20075;-81
2022/01/06 06:42:28;;;;;;;5.07;2.80;;;;;;;1.68;74.80;97850.09;5077055;28;20110;-83
2022/01/06 06:44:55;;;;;;;5.95;3.15;;;;;;;1.70;74.65;97843.25;5079452;28;20059;-80
2022/01/06 06:47:23;;;;;;;4.57;2.88;;;;;;;1.60;74.85;97839.75;5074694;28;20098;-81
2022/01/06 06:49:50;;;;;;;4.78;2.83;;;;;;;1.64;75.04;97855.22;5074159;28;20048;-82
2022/01/06 06:52:17;;;;;;;5.35;3.13;;;;;;;1.66;74.78;97850.09;5056838;28;20428;-86
2022/01/06 06:54:44;;;;;;;5.53;3.10;;;;;;;1.72;74.66;97855.31;5073831;28;20059;-86
2022/01/06 06:57:11;;;;;;;6.22;3.33;;;;;;;1.77;74.83;97837.31;5087072;28;20048;-83
2022/01/06 06:59:38;;;;;;;8.18;3.20;;;;;;;1.76;75.08;97841.56;5085020;28;20048;-83
2022/01/06 07:02:05;;;;;;;7.38;3.33;;;;;;;1.88;74.73;97848.53;5094879;28;20413;-83
2022/01/06 07:04:32;;;;;;;7.05;3.80;;;;;;;1.79;74.60;97831.31;5094223;28;20052;-82
2022/01/06 07:07:15;;;;;;;6.35;3.50;;;;;;;1.95;74.32;97844.25;5094920;28;20072;-85
2022/01/06 07:09:42;;;;;;;7.30;3.95;;;;;;;1.87;74.33;97835.63;5076958;28;20048;-82
2022/01/06 07:12:09;;;;;;;13.10;4.70;;;;;;;1.89;74.55;97839.06;5076729;28;20074;-83
2022/01/06 07:14:36;;;;;;;7.63;4.53;;;;;;;1.83;74.40;97821.91;5076772;28;20052;-82
2022/01/06 07:17:12;;;;;;;8.88;5.43;;;;;;;2.00;74.14;97847.72;5094686;28;20060;-82
2022/01/06 07:19:41;;;;;;;10.80;5.22;;;;;;;2.08;74.25;97850.34;5093181;28;20048;-84
2022/01/06 07:22:08;;;;;;;10.80;6.32;;;;;;;2.13;74.34;97854.66;5093976;28;20124;-81
2022/01/06 07:24:36;;;;;;;13.98;6.97;;;;;;;2.15;73.86;97862.38;5075408;28;20055;-81
2022/01/06 07:27:04;;;;;;;13.87;8.07;;;;;;;1.90;74.09;97851.97;5093719;28;20520;-83
2022/01/06 07:29:31;;;;;;;14.48;7.85;;;;;;;1.83;74.81;97832.19;5093943;28;20394;-85
2022/01/06 07:31:58;;;;;;;12.98;7.30;;;;;;;1.91;74.48;97857.97;5095700;28;20510;-79
2022/01/06 07:34:26;;;;;;;15.02;7.20;;;;;;;1.84;74.50;97864.78;5097451;28;20174;-84
2022/01/06 07:36:52;;;;;;;11.80;6.78;;;;;;;1.82;74.62;97859.63;5084039;28;20515;-83
2022/01/06 07:39:19;;;;;;;14.75;6.82;;;;;;;1.83;74.75;97852.78;5086515;28;20086;-80
2022/01/06 07:41:47;;;;;;;12.93;6.43;;;;;;;1.89;74.84;97857.09;5104922;28;20072;-82
2022/01/06 07:44:14;;;;;;;16.63;6.32;;;;;;;1.96;74.51;97846.00;5101086;28;20050;-81
2022/01/06 07:46:42;;;;;;;14.90;6.85;;;;;;;1.92;74.60;97839.97;5086022;28;20076;-82
2022/01/06 07:49:09;;;;;;;12.38;6.82;;;;;;;1.98;74.56;97847.72;5098673;28;20117;-84
2022/01/06 07:51:37;;;;;;;11.18;6.95;;;;;;;2.23;74.54;97858.13;5059779;28;20133;-85
2022/01/06 07:54:04;;;;;;;14.85;7.30;;;;;;;2.13;74.30;97841.78;5087083;28;20080;-81
2022/01/06 07:56:32;;;;;;;12.23;7.13;;;;;;;2.07;74.62;97856.34;5060317;28;20059;-82
2022/01/06 07:59:00;;;;;;;14.20;7.53;;;;;;;1.96;74.79;97867.47;5075587;28;20048;-82
2022/01/06 08:01:26;;;;;;;13.90;7.47;;;;;;;1.84;75.46;97842.47;5074322;28;20048;-82
2022/01/06 08:03:54;;;;;;;17.02;8.90;;;;;;;2.06;75.20;97845.16;5078116;28;20147;-81
2022/01/06 08:06:21;;;;;;;15.07;8.45;;;;;;;2.19;74.90;97843.50;5078191;28;20056;-83
2022/01/06 08:08:48;;;;;;;15.38;8.15;;;;;;;2.30;74.81;97857.28;5078715;28;20044;-82
2022/01/06 08:11:15;;;;;;;13.93;7.60;;;;;;;2.37;74.56;97847.91;5078546;28;20068;-84
2022/01/06 08:13:48;;;;;;;13.65;7.43;;;;;;;2.32;74.48;97827.25;5080018;28;20052;-82
2022/01/06 08:16:15;;;;;;;14.70;7.03;;;;;;;2.21;74.52;97822.06;5077231;28;20147;-83
2022/01/06 08:18:42;;;;;;;14.20;7.75;;;;;;;2.24;74.77;97831.53;5074580;28;20056;-87
2022/01/06 08:21:09;;;;;;;14.98;7.03;;;;;;;2.27;74.31;97830.69;5074193;28;20056;-84
2022/01/06 08:23:36;;;;;;;15.85;8.48;;;;;;;2.08;74.44;97776.50;5075344;28;20510;-89
2022/01/06 08:26:03;;;;;;;16.08;7.38;;;;;;;2.50;74.03;97829.03;5026053;28;20430;-87
2022/01/06 08:28:30;;;;;;;12.35;6.95;;;;;;;2.53;74.06;97817.88;5076052;28;20052;-85
2022/01/06 08:30:57;;;;;;;13.43;6.82;;;;;;;2.54;74.22;97829.91;5074466;28;20567;-86
2022/01/06 08:33:25;;;;;;;11.35;6.60;;;;;;;2.50;74.10;97813.59;5056627;28;20616;-85
2022/01/06 08:35:53;;;;;;;12.07;6.47;;;;;;;2.53;74.32;97828.19;5081510;28;20063;-82
2022/01/06 08:38:21;;;;;;;9.98;6.40;;;;;;;2.54;74.00;97815.31;5085337;28;20049;-82
2022/01/06 08:40:48;;;;;;;15.23;7.00;;;;;;;2.66;74.11;97825.63;5067718;28;20055;-81
2022/01/06 08:43:15;;;;;;;11.80;6.85;;;;;;;2.72;73.95;97829.09;5066665;28;20059;-82
2022/01/06 08:45:42;;;;;;;13.90;7.40;;;;;;;2.78;73.68;97823.97;5064707;28;20053;-84
2022/01/06 08:48:10;;;;;;;13.30;6.40;;;;;;;2.76;73.44;97826.53;5075735;28;20059;-80
2022/01/06 08:50:36;;;;;;;13.13;7.22;;;;;;;2.65;73.80;97818.78;5057251;28;20040;-82
2022/01/06 08:53:03;;;;;;;14.43;7.28;;;;;;;2.76;73.47;97823.94;5074663;28;20083;-82
2022/01/06 08:55:31;;;;;;;12.13;6.82;;;;;;;2.94;73.28;97819.69;5073947;28;20105;-84
2022/01/06 08:57:58;;;;;;;14.00;7.43;;;;;;;3.04;73.20;97834.31;5073976;28;20094;-83
2022/01/06 09:00:27;;;;;;;13.52;7.35;;;;;;;3.04;72.62;97836.88;5056003;28;20411;-84
2022/01/06 09:02:58;;;;;;;12.30;7.40;;;;;;;2.90;73.47;97834.28;5074196;28;20045;-81
2022/01/06 09:05:27;;;;;;;13.65;7.25;;;;;;;2.56;73.39;97799.81;5081834;28;20048;-84
2022/01/06 09:07:54;;;;;;;13.57;7.53;;;;;;;2.54;73.90;97805.00;5061693;28;20055;-82
2022/01/06 09:10:23;;;;;;;16.35;7.88;;;;;;;2.27;73.54;97769.69;5058635;28;20053;-80
2022/01/06 09:12:50;;;;;;;14.68;8.05;;;;;;;2.49;74.11;97827.31;5057936;28;20082;-81
2022/01/06 09:15:17;;;;;;;16.50;8.23;;;;;;;2.54;74.15;97824.75;5080018;28;20052;-79
2022/01/06 09:17:44;;;;;;;15.38;7.82;;;;;;;2.57;74.26;97810.16;5083137;28;20071;-81
2022/01/06 09:20:12;;;;;;;14.35;8.02;;;;;;;2.50;73.74;97805.84;5081137;28;20063;-79
2022/01/06 09:22:43;;;;;;;16.58;8.85;;;;;;;2.49;73.53;97826.44;5077326;28;20076;-81
2022/01/06 09:25:12;;;;;;;15.38;8.63;;;;;;;2.47;74.46;97803.25;5055322;28;20044;-83
2022/01/06 09:27:40;;;;;;;15.27;8.57;;;;;;;2.59;73.94;97812.75;5073458;28;20052;-81
2022/01/06 09:30:08;;;;;;;16.95;8.98;;;;;;;2.74;73.55;97820.50;5055282;28;20287;-80
2022/01/06 09:32:37;;;;;;;22.63;10.45;;;;;;;2.81;73.28;97829.97;5073732;28;20052;-80
2022/01/06 09:35:04;;;;;;;18.48;9.63;;;;;;;2.80;73.56;97799.03;5073480;28;20457;-81
2022/01/06 09:37:31;;;;;;;18.38;8.93;;;;;;;2.89;73.15;97813.66;5073095;28;20102;-83
2022/01/06 09:39:58;;;;;;;18.17;8.55;;;;;;;2.84;73.93;97813.66;5073250;28;20056;-79
2022/01/06 09:42:25;;;;;;;16.13;7.93;;;;;;;2.87;73.82;97824.81;5072789;28;20190;-83
2022/01/06 09:44:53;;;;;;;12.40;7.03;;;;;;;2.82;73.72;97825.69;5072893;28;20052;-81
2022/01/06 09:47:21;;;;;;;11.25;6.65;;;;;;;2.78;73.73;97821.38;5076250;28;20110;-79
2022/01/06 09:50:08;;;;;;;9.73;5.75;;;;;;;2.77;73.40;97817.91;5090009;28;20056;-80
2022/01/06 09:52:36;;;;;;;12.30;6.80;;;;;;;2.74;73.46;97817.94;5081418;28;20061;-80
2022/01/06 09:55:04;;;;;;;10.82;6.55;;;;;;;2.82;74.00;97821.38;5068212;28;20049;-82
2022/01/06 09:57:32;;;;;;;13.25;6.15;;;;;;;2.76;73.35;97811.06;5078129;28;20063;-82
2022/01/06 10:00:01;;;;;;;12.70;6.07;;;;;;;2.62;73.53;97810.16;5068091;28;20065;-80
2022/01/06 10:02:39;;;;;;;15.77;8.25;;;;;;;2.68;73.80;97810.19;5083701;28;20456;-81
2022/01/06 10:05:07;;;;;;;12.40;6.35;;;;;;;2.66;73.94;97799.00;5078215;28;20449;-81
2022/01/06 10:07:39;;;;;;;9.35;5.20;;;;;;;2.71;73.56;97793.84;5060024;28;20063;-80
2022/01/06 10:10:14;;;;;;;9.35;5.32;;;;;;;2.72;73.53;97793.00;5079443;28;20536;-81
2022/01/06 10:12:42;;;;;;;9.40;5.15;;;;;;;2.70;73.78;97802.44;5080544;28;20700;-82
2022/01/06 10:15:21;;;;;;;11.48;5.80;;;;;;;2.66;73.97;97815.31;5065891;28;20114;-80
2022/01/06 10:17:49;;;;;;;12.57;6.22;;;;;;;2.70;73.67;97810.19;5087037;28;20063;-81
2022/01/06 10:20:20;;;;;;;10.93;5.82;;;;;;;2.74;73.64;97802.47;5090253;28;20041;-79
2022/01/06 10:22:51;;;;;;;11.18;6.15;;;;;;;2.78;73.84;97799.03;5090182;28;20106;-78
2022/01/06 10:25:18;;;;;;;;;;;;;;;2.71;73.69;97797.31;5089976;28;20071;-79
2022/01/06 10:27:46;;;;;;;9.45;5.90;;;;;;;2.60;74.04;97781.81;5090248;28;19985;-79
2022/01/06 10:30:16;;;;;;;12.10;5.30;;;;;;;2.74;73.99;97806.75;5090638;28;20102;-79
2022/01/06 10:32:44;;;;;;;9.75;4.72;;;;;;;2.62;73.51;97776.66;5072310;28;20040;-78
2022/01/06 10:35:18;;;;;;;9.77;4.72;;;;;;;2.48;73.29;97781.78;5071678;28;20048;-81
2022/01/06 10:37:48;;;;;;;11.50;5.40;;;;;;;2.59;74.43;97800.72;5090723;28;20064;-81
2022/01/06 10:40:22;;;;;;;9.52;5.65;;;;;;;2.80;73.87;97807.63;5092986;28;20075;-80
2022/01/06 10:42:52;;;;;;;10.40;5.93;;;;;;;2.76;73.58;97787.84;5091316;28;20048;-81
2022/01/06 10:45:25;;;;;;;11.20;5.55;;;;;;;2.77;73.49;97792.13;5060591;28;20427;-82
2022/01/06 10:47:57;;;;;;;11.20;6.43;;;;;;;2.66;74.53;97794.69;5076089;28;20056;-82
2022/01/06 10:50:27;;;;;;;13.27;6.47;;;;;;;2.66;74.16;97791.25;5075846;28;20059;-84
2022/01/06 10:53:08;;;;;;;13.68;7.45;;;;;;;2.53;73.87;97785.22;5058568;28;20063;-79
2022/01/06 10:55:37;;;;;;;12.95;6.55;;;;;;;2.62;74.77;97787.84;5075680;28;20060;-81
2022/01/06 10:58:16;;;;;;;13.88;6.40;;;;;;;2.55;74.18;97757.75;5041067;28;20110;-83
2022/01/06 11:00:48;;;;;;;12.38;6.13;;;;;;;2.76;73.79;97782.69;5057773;28;20041;-84
2022/01/06 11:03:23;;;;;;;10.93;5.57;;;;;;;2.75;73.69;97780.09;5074823;28;20045;-85
2022/01/06 11:05:56;;;;;;;11.73;6.00;;;;;;;2.72;73.84;97788.69;5076087;28;20103;-81
2022/01/06 11:08:29;;;;;;;11.25;6.10;;;;;;;2.72;73.89;97780.13;5075565;28;20048;-81
2022/01/06 11:13:49;;;;;;;11.75;6.47;;;;;;;2.74;73.87;97768.09;5075649;28;20053;-85
2022/01/06 11:16:18;;;;;;;16.13;6.60;;;;;;;2.73;73.66;97776.66;5082153;28;20528;-81
2022/01/06 11:18:54;;;;;;;11.90;6.53;;;;;;;2.61;74.06;97769.78;5061365;28;20056;-80
2022/01/06 11:21:32;;;;;;;13.45;7.25;;;;;;;2.53;73.99;97769.75;5057147;28;20429;-84
2022/01/06 11:24:28;;;;;;;12.70;6.47;;;;;;;2.42;74.50;97774.03;5058353;28;20091;-81
2022/01/06 11:27:11;;;;;;;13.25;6.90;;;;;;;2.36;74.83;97768.88;5079699;28;20048;-84
2022/01/06 11:29:43;;;;;;;14.23;7.20;;;;;;;2.46;74.36;97768.03;5075966;28;20056;-81
2022/01/06 11:32:22;;;;;;;13.73;7.82;;;;;;;2.59;74.41;97776.66;5076561;28;20546;-84
2022/01/06 11:34:51;;;;;;;14.00;8.00;;;;;;;2.59;74.39;97777.50;5074532;28;20048;-81
2022/01/06 11:37:17;;;;;;;16.48;8.00;;;;;;;2.75;74.38;97793.84;5077599;28;20056;-81
2022/01/06 11:39:47;;;;;;;17.23;8.30;;;;;;;2.66;74.39;97771.50;5057580;28;20075;-81
2022/01/06 11:42:25;;;;;;;14.63;7.67;;;;;;;2.72;74.28;97780.97;5074606;28;20118;-83
2022/01/06 11:44:54;;;;;;;15.23;7.90;;;;;;;2.75;74.31;97793.84;5074272;28;20295;-80
2022/01/06 11:47:37;;;;;;;14.85;8.40;;;;;;;2.71;74.75;97779.25;5074888;28;20052;-82
2022/01/06 11:50:12;;;;;;;17.38;8.40;;;;;;;2.81;74.74;97782.69;5076889;28;20052;-82
2022/01/06 11:52:54;;;;;;;16.40;8.18;;;;;;;2.86;74.03;97786.13;5079399;28;20060;-84
2022/01/06 11:55:23;;;;;;;13.68;8.35;;;;;;;2.77;73.78;97778.38;5074200;28;20052;-79